createdAt,value
2018-10-18T00:01:46.856Z,24.23
2018-10-18T00:04:15.302Z,30.57
2018-10-18T00:06:43.900Z,27.47
2018-10-18T00:09:12.670Z,28.80
2018-10-18T00:11:41.164Z,26.53
2018-10-18T00:14:09.740Z,28.60
2018-10-18T00:16:38.436Z,26.50
2018-10-18T00:19:06.899Z,32.40
2018-10-18T00:21:35.371Z,29.53
2018-10-18T00:24:04.201Z,32.13
2018-10-18T00:26:32.783Z,29.43
2018-10-18T00:29:01.345Z,30.53
2018-10-18T00:31:29.747Z,31.87
2018-10-18T00:33:58.283Z,27.87
2018-10-18T00:36:26.723Z,31.63
2018-10-18T00:38:55.306Z,30.07
2018-10-18T00:41:24.052Z,28.63
2018-10-18T00:43:52.740Z,33.60
2018-10-18T00:46:21.167Z,28.03
2018-10-18T00:48:49.696Z,29.20
2018-10-18T00:51:18.130Z,27.47
2018-10-18T00:53:46.603Z,30.97
2018-10-18T00:56:15.179Z,29.90
2018-10-18T00:58:43.891Z,31.00
2018-10-18T01:01:12.322Z,27.13
2018-10-18T01:03:40.872Z,29.33
2018-10-18T01:06:09.396Z,32.77
2018-10-18T01:08:37.951Z,25.90
2018-10-18T01:11:06.426Z,31.43
2018-10-18T01:13:34.887Z,28.57
2018-10-18T01:16:03.361Z,31.03
2018-10-18T01:18:31.832Z,27.50
2018-10-18T01:21:00.264Z,33.67
2018-10-18T01:23:28.730Z,28.23
2018-10-18T01:25:57.337Z,33.87
2018-10-18T01:28:26.093Z,28.70
2018-10-18T01:30:54.527Z,29.23
2018-10-18T01:33:22.979Z,26.63
2018-10-18T01:35:51.629Z,26.77
2018-10-18T01:38:20.080Z,30.40
2018-10-18T01:40:48.504Z,25.37
2018-10-18T01:43:17.078Z,25.23
2018-10-18T01:45:45.570Z,26.80
2018-10-18T01:48:14.053Z,28.40
2018-10-18T01:50:42.661Z,26.63
2018-10-18T01:53:11.228Z,28.27
2018-10-18T01:55:39.754Z,26.03
2018-10-18T01:58:08.166Z,23.17
2018-10-18T02:00:36.665Z,29.90
2018-10-18T02:03:05.191Z,25.73
2018-10-18T02:05:33.641Z,25.37
2018-10-18T02:08:02.165Z,29.63
2018-10-18T02:10:30.876Z,26.23
2018-10-18T02:12:59.346Z,25.33
2018-10-18T02:15:28.102Z,28.17
2018-10-18T02:17:56.575Z,27.23
2018-10-18T02:20:25.199Z,27.83
2018-10-18T02:22:53.686Z,26.37
2018-10-18T02:25:22.284Z,25.53
2018-10-18T02:27:50.735Z,25.73
2018-10-18T02:30:19.287Z,26.97
2018-10-18T02:32:47.907Z,25.67
2018-10-18T02:35:16.365Z,26.53
2018-10-18T02:37:44.819Z,28.90
2018-10-18T02:40:13.387Z,24.53
2018-10-18T02:42:41.917Z,24.70
2018-10-18T02:45:10.426Z,28.57
2018-10-18T02:47:39.160Z,27.70
2018-10-18T02:50:07.696Z,27.63
2018-10-18T02:52:36.352Z,26.20
2018-10-18T02:55:05.065Z,29.60
2018-10-18T02:57:33.512Z,28.90
2018-10-18T03:00:02.110Z,31.97
2018-10-18T03:02:30.686Z,30.80
2018-10-18T03:04:59.148Z,32.87
2018-10-18T03:07:27.648Z,32.00
2018-10-18T03:09:56.100Z,29.07
2018-10-18T03:12:24.608Z,27.23
2018-10-18T03:14:53.411Z,25.10
2018-10-18T03:17:21.863Z,31.77
2018-10-18T03:19:50.715Z,33.47
2018-10-18T03:22:19.244Z,23.57
2018-10-18T03:24:47.783Z,29.90
2018-10-18T03:27:16.198Z,28.10
2018-10-18T03:29:44.663Z,26.13
2018-10-18T03:32:13.104Z,26.73
2018-10-18T03:34:41.556Z,27.27
2018-10-18T03:37:09.980Z,23.73
2018-10-18T03:39:38.424Z,30.03
2018-10-18T03:42:06.991Z,25.03
2018-10-18T03:44:35.669Z,24.27
2018-10-18T03:47:04.147Z,24.83
2018-10-18T03:49:32.575Z,26.53
2018-10-18T03:52:01.091Z,21.97
2018-10-18T03:54:29.547Z,25.60
2018-10-18T03:56:58.037Z,26.87
2018-10-18T03:59:26.605Z,26.07
2018-10-18T04:01:55.559Z,24.93
2018-10-18T04:04:24.094Z,26.03
2018-10-18T04:06:52.646Z,24.93
2018-10-18T04:09:21.183Z,23.27
2018-10-18T04:11:49.671Z,22.87
2018-10-18T04:14:18.080Z,21.87
2018-10-18T04:16:46.539Z,25.73
2018-10-18T04:19:15.207Z,22.50
2018-10-18T04:21:43.691Z,24.30
2018-10-18T04:24:12.262Z,21.00
2018-10-18T04:26:40.847Z,24.77
2018-10-18T04:29:09.307Z,25.80
2018-10-18T04:31:37.763Z,24.23
2018-10-18T04:34:06.204Z,26.37
2018-10-18T04:36:34.664Z,24.53
2018-10-18T04:39:03.443Z,23.60
2018-10-18T04:41:31.956Z,23.97
2018-10-18T04:44:00.709Z,25.37
2018-10-18T04:46:29.447Z,26.27
2018-10-18T04:48:58.021Z,28.70
2018-10-18T04:51:26.621Z,28.47
2018-10-18T04:53:55.070Z,27.23
2018-10-18T04:56:23.595Z,28.60
2018-10-18T04:58:52.174Z,32.47
2018-10-18T05:01:20.900Z,26.67
2018-10-18T05:03:49.592Z,27.63
2018-10-18T05:06:18.031Z,32.70
2018-10-18T05:08:46.840Z,27.23
2018-10-18T05:11:15.414Z,28.97
2018-10-18T05:13:43.993Z,34.73
2018-10-18T05:16:12.631Z,33.97
2018-10-18T05:18:41.079Z,35.57
2018-10-18T05:21:09.649Z,29.83
2018-10-18T05:23:38.151Z,32.67
2018-10-18T05:26:07.173Z,34.90
2018-10-18T05:28:35.752Z,34.03
2018-10-18T05:31:04.256Z,38.73
2018-10-18T05:33:33.090Z,37.03
2018-10-18T05:36:01.840Z,38.37
2018-10-18T05:38:30.811Z,34.87
2018-10-18T05:40:59.428Z,35.10
2018-10-18T05:43:27.870Z,37.60
2018-10-18T05:45:56.681Z,38.37
2018-10-18T05:48:25.229Z,36.90
2018-10-18T05:50:53.641Z,49.83
2018-10-18T05:53:22.136Z,44.03
2018-10-18T05:55:50.845Z,43.07
2018-10-18T05:58:19.516Z,40.17
2018-10-18T06:00:48.057Z,42.47
2018-10-18T06:03:16.528Z,39.40
2018-10-18T06:05:45.072Z,42.70
2018-10-18T06:08:13.660Z,43.67
2018-10-18T06:10:53.414Z,39.33
2018-10-18T06:13:21.956Z,38.90
2018-10-18T06:15:50.787Z,41.97
2018-10-18T06:18:19.310Z,44.13
2018-10-18T06:20:48.367Z,43.23
2018-10-18T06:23:17.059Z,42.67
2018-10-18T06:25:45.696Z,42.93
2018-10-18T06:28:14.254Z,58.37
2018-10-18T06:30:42.929Z,34.90
2018-10-18T06:33:11.531Z,32.20
2018-10-18T06:35:40.346Z,31.63
2018-10-18T06:38:09.036Z,33.33
2018-10-18T06:40:37.548Z,34.80
2018-10-18T06:43:06.174Z,29.00
2018-10-18T06:45:34.775Z,28.90
2018-10-18T06:48:03.361Z,32.73
2018-10-18T06:50:32.084Z,33.10
2018-10-18T06:53:00.981Z,42.07
2018-10-18T06:55:29.685Z,34.53
2018-10-18T06:57:58.279Z,41.17
2018-10-18T07:00:26.888Z,43.27
2018-10-18T07:02:55.572Z,48.23
2018-10-18T07:05:24.203Z,43.83
2018-10-18T07:07:52.845Z,41.97
2018-10-18T07:10:21.436Z,42.90
2018-10-18T07:12:49.970Z,54.07
2018-10-18T07:15:18.476Z,47.50
2018-10-18T07:17:47.116Z,46.07
2018-10-18T07:20:16.163Z,48.50
2018-10-18T07:22:44.753Z,47.43
2018-10-18T07:25:14.603Z,48.27
2018-10-18T07:27:43.743Z,47.80
2018-10-18T07:30:13.714Z,49.10
2018-10-18T07:32:42.529Z,48.17
2018-10-18T07:35:12.259Z,43.67
2018-10-18T07:37:41.157Z,46.10
2018-10-18T07:40:12.131Z,46.63
2018-10-18T07:42:40.672Z,49.23
2018-10-18T07:45:10.231Z,51.00
2018-10-18T07:47:38.938Z,52.20
2018-10-18T07:50:07.804Z,57.23
2018-10-18T07:52:36.620Z,52.90
2018-10-18T07:55:05.783Z,72.93
2018-10-18T07:57:34.350Z,62.77
2018-10-18T08:00:03.065Z,58.33
2018-10-18T08:02:31.652Z,54.43
2018-10-18T08:05:00.262Z,52.53
2018-10-18T08:07:28.780Z,51.37
2018-10-18T08:09:57.444Z,48.87
2018-10-18T08:12:26.105Z,50.20
2018-10-18T08:14:54.603Z,55.33
2018-10-18T08:17:23.196Z,51.17
2018-10-18T08:19:51.923Z,50.50
2018-10-18T08:22:20.549Z,54.77
2018-10-18T08:24:49.335Z,77.53
2018-10-18T08:27:17.827Z,53.33
2018-10-18T08:29:46.340Z,49.73
2018-10-18T08:32:14.855Z,54.83
2018-10-18T08:34:43.353Z,52.67
2018-10-18T08:37:11.955Z,59.10
2018-10-18T08:39:40.624Z,61.20
2018-10-18T08:42:09.544Z,60.07
2018-10-18T08:44:38.032Z,57.93
2018-10-18T08:47:06.828Z,59.70
2018-10-18T08:49:35.356Z,61.03
2018-10-18T08:52:04.003Z,56.03
2018-10-18T08:54:32.531Z,55.90
2018-10-18T08:57:01.126Z,61.40
2018-10-18T08:59:29.672Z,63.47
2018-10-18T09:01:58.282Z,59.50
2018-10-18T09:04:26.771Z,62.97
2018-10-18T09:06:55.443Z,70.07
2018-10-18T09:09:24.087Z,68.67
2018-10-18T09:11:52.596Z,66.63
2018-10-18T09:14:21.152Z,63.67
2018-10-18T09:16:49.664Z,64.00
2018-10-18T09:19:18.314Z,61.53
2018-10-18T09:21:46.999Z,67.57
2018-10-18T09:24:15.502Z,65.73
2018-10-18T09:26:44.072Z,64.60
2018-10-18T09:29:12.579Z,66.30
2018-10-18T09:31:41.133Z,65.77
2018-10-18T09:34:09.727Z,69.27
2018-10-18T09:36:38.546Z,58.33
2018-10-18T09:39:08.103Z,56.70
2018-10-18T09:41:36.977Z,57.60
2018-10-18T09:44:06.416Z,57.30
2018-10-18T09:46:36.082Z,59.90
2018-10-18T09:49:05.209Z,59.77
2018-10-18T09:51:34.040Z,56.03
2018-10-18T09:54:03.535Z,59.57
2018-10-18T09:56:32.900Z,63.07
2018-10-18T09:59:02.096Z,57.60
2018-10-18T10:01:35.792Z,56.57
2018-10-18T10:04:04.437Z,58.33
2018-10-18T10:06:33.201Z,59.23
2018-10-18T10:09:01.709Z,51.53
2018-10-18T10:11:30.225Z,62.80
2018-10-18T10:13:59.065Z,53.67
2018-10-18T10:16:27.704Z,56.80
2018-10-18T10:18:56.327Z,53.00
2018-10-18T10:21:25.152Z,55.60
2018-10-18T10:23:53.676Z,59.03
2018-10-18T10:26:22.176Z,55.73
2018-10-18T10:28:50.848Z,62.20
2018-10-18T10:31:19.679Z,65.03
2018-10-18T10:33:48.355Z,60.53
2018-10-18T10:36:16.889Z,56.37
2018-10-18T10:38:45.381Z,59.87
2018-10-18T10:41:13.966Z,60.73
2018-10-18T10:43:42.615Z,53.63
2018-10-18T10:46:11.461Z,53.17
2018-10-18T10:48:40.119Z,59.50
2018-10-18T10:51:08.821Z,56.67
2018-10-18T10:53:37.515Z,60.20
2018-10-18T10:56:06.077Z,55.37
2018-10-18T10:58:34.754Z,53.70
2018-10-18T11:01:07.588Z,57.60
2018-10-18T11:03:36.624Z,58.63
2018-10-18T11:06:05.358Z,55.77
2018-10-18T11:08:34.458Z,57.80
2018-10-18T11:11:03.403Z,44.83
2018-10-18T11:13:31.961Z,51.50
2018-10-18T11:16:01.812Z,49.47
2018-10-18T11:18:31.140Z,47.10
2018-10-18T11:20:59.764Z,51.00
2018-10-18T11:23:28.496Z,52.87
2018-10-18T11:25:58.873Z,46.60
2018-10-18T11:28:27.413Z,52.40
2018-10-18T11:30:56.010Z,52.87
2018-10-18T11:33:24.522Z,48.37
2018-10-18T11:35:53.080Z,48.63
2018-10-18T11:38:21.780Z,43.60
2018-10-18T11:40:50.648Z,44.93
2018-10-18T11:43:19.178Z,47.00
2018-10-18T11:45:48.151Z,41.07
2018-10-18T11:48:17.036Z,41.57
2018-10-18T11:50:45.897Z,39.47
2018-10-18T11:53:14.460Z,41.43
2018-10-18T11:55:42.982Z,42.87
2018-10-18T11:58:12.374Z,44.87
2018-10-18T12:00:41.271Z,41.70
2018-10-18T12:03:09.969Z,35.70
2018-10-18T12:05:38.500Z,40.23
2018-10-18T12:08:07.113Z,41.97
2018-10-18T12:10:35.719Z,37.23
2018-10-18T12:13:04.280Z,35.70
2018-10-18T12:15:32.976Z,36.97
2018-10-18T12:18:01.467Z,34.60
2018-10-18T12:20:30.045Z,37.87
2018-10-18T12:22:58.620Z,38.57
2018-10-18T12:25:27.292Z,37.47
2018-10-18T12:27:55.782Z,37.83
2018-10-18T12:30:24.351Z,37.67
2018-10-18T12:32:52.861Z,37.43
2018-10-18T12:35:21.372Z,38.03
2018-10-18T12:37:50.056Z,34.07
2018-10-18T12:40:18.599Z,34.07
2018-10-18T12:42:48.612Z,34.10
2018-10-18T12:45:17.258Z,36.10
2018-10-18T12:47:45.771Z,35.87
2018-10-18T12:50:14.340Z,40.23
2018-10-18T12:52:43.145Z,34.50
2018-10-18T12:55:11.686Z,34.47
2018-10-18T12:57:40.201Z,31.63
2018-10-18T13:00:09.934Z,35.90
2018-10-18T13:02:38.594Z,31.10
2018-10-18T13:05:08.589Z,26.70
2018-10-18T13:07:37.223Z,31.40
2018-10-18T13:10:07.308Z,29.20
2018-10-18T13:12:35.929Z,30.87
2018-10-18T13:15:04.747Z,33.33
2018-10-18T13:17:33.325Z,27.37
2018-10-18T13:20:01.956Z,24.83
2018-10-18T13:22:30.624Z,25.13
2018-10-18T13:24:59.151Z,28.20
2018-10-18T13:27:27.632Z,30.93
2018-10-18T13:29:56.177Z,27.93
2018-10-18T13:32:25.394Z,28.50
2018-10-18T13:34:53.967Z,27.17
2018-10-18T13:37:23.048Z,32.03
2018-10-18T13:39:52.353Z,28.77
2018-10-18T13:42:21.432Z,29.00
2018-10-18T13:44:50.504Z,25.15
2018-10-18T13:47:19.564Z,25.02
2018-10-18T13:49:48.092Z,27.63
2018-10-18T13:52:16.605Z,28.77
2018-10-18T13:54:45.703Z,25.25
2018-10-18T13:57:15.203Z,23.55
2018-10-18T13:59:55.972Z,25.08
2018-10-18T14:02:24.553Z,29.60
2018-10-18T14:04:53.851Z,27.10
2018-10-18T14:07:22.483Z,25.70
2018-10-18T14:09:51.089Z,27.93
2018-10-18T14:12:19.569Z,24.17
2018-10-18T14:14:48.052Z,24.90
2018-10-18T14:17:17.030Z,26.43
2018-10-18T14:19:45.830Z,35.77
2018-10-18T14:22:14.324Z,41.40
2018-10-18T14:24:42.844Z,42.50
2018-10-18T14:27:11.356Z,24.17
2018-10-18T14:29:40.049Z,28.97
2018-10-18T14:32:08.777Z,28.77
2018-10-18T14:34:37.471Z,25.27
2018-10-18T14:37:06.011Z,22.87
2018-10-18T14:39:34.575Z,29.27
2018-10-18T14:42:03.061Z,34.13
2018-10-18T14:44:32.205Z,27.58
2018-10-18T14:47:00.968Z,25.40
2018-10-18T14:49:29.946Z,22.17
2018-10-18T14:51:59.068Z,24.20
2018-10-18T14:54:29.704Z,30.55
2018-10-18T14:56:58.843Z,35.75
2018-10-18T14:59:28.081Z,30.48
2018-10-18T15:01:57.182Z,83.82
2018-10-18T15:04:26.488Z,38.63
2018-10-18T15:06:55.721Z,26.50
2018-10-18T15:09:24.825Z,22.52
2018-10-18T15:11:54.021Z,22.77
2018-10-18T15:14:23.084Z,27.75
2018-10-18T15:16:52.550Z,26.55
2018-10-18T15:19:21.599Z,29.75
2018-10-18T15:21:50.670Z,25.92
2018-10-18T15:24:19.823Z,33.33
2018-10-18T15:26:48.944Z,32.28
2018-10-18T15:29:18.350Z,28.25
2018-10-18T15:31:47.688Z,27.77
2018-10-18T15:34:16.402Z,33.83
2018-10-18T15:36:45.560Z,35.73
2018-10-18T15:39:14.309Z,47.60
2018-10-18T15:41:42.955Z,33.93
2018-10-18T15:44:11.966Z,36.37
2018-10-18T15:46:40.749Z,35.50
2018-10-18T15:49:09.502Z,39.53
2018-10-18T15:51:38.086Z,55.57
2018-10-18T15:54:07.108Z,41.90
2018-10-18T15:56:36.247Z,35.70
2018-10-18T15:59:05.032Z,40.67
2018-10-18T16:01:33.843Z,38.10
2018-10-18T16:04:02.473Z,35.33
2018-10-18T16:06:31.029Z,35.57
2018-10-18T16:08:59.577Z,35.53
2018-10-18T16:11:28.251Z,34.50
2018-10-18T16:13:56.873Z,35.60
2018-10-18T16:16:26.316Z,33.23
2018-10-18T16:18:54.976Z,35.00
2018-10-18T16:21:23.579Z,36.83
2018-10-18T16:23:52.156Z,33.10
2018-10-18T16:26:21.699Z,39.40
2018-10-18T16:28:50.928Z,34.37
2018-10-18T16:31:19.764Z,39.27
2018-10-18T16:33:48.512Z,37.97
2018-10-18T16:36:17.093Z,37.83
2018-10-18T16:38:45.599Z,36.00
2018-10-18T16:41:14.459Z,33.00
2018-10-18T16:43:43.051Z,28.87
2018-10-18T16:46:11.656Z,42.67
2018-10-18T16:48:40.700Z,38.73
2018-10-18T16:51:09.309Z,34.97
2018-10-18T16:53:37.926Z,32.57
2018-10-18T16:56:06.536Z,32.63
2018-10-18T16:58:35.175Z,32.43
2018-10-18T17:01:03.929Z,35.33
2018-10-18T17:03:32.462Z,35.10
2018-10-18T17:06:01.028Z,30.83
2018-10-18T17:08:29.703Z,37.13
2018-10-18T17:10:58.280Z,33.40
2018-10-18T17:13:26.811Z,56.63
2018-10-18T17:15:55.337Z,33.63
2018-10-18T17:18:24.155Z,30.67
2018-10-18T17:20:52.808Z,30.80
2018-10-18T17:23:21.505Z,32.03
2018-10-18T17:25:50.182Z,33.87
2018-10-18T17:28:18.738Z,29.23
2018-10-18T17:30:47.232Z,30.80
2018-10-18T17:33:16.082Z,49.33
2018-10-18T17:35:44.584Z,52.50
2018-10-18T17:38:13.195Z,41.93
2018-10-18T17:40:41.938Z,37.00
2018-10-18T17:43:10.534Z,34.20
2018-10-18T17:45:39.064Z,33.77
2018-10-18T17:48:07.686Z,36.83
2018-10-18T17:50:36.498Z,42.07
2018-10-18T17:53:05.555Z,35.20
2018-10-18T17:55:34.281Z,37.90
2018-10-18T17:58:03.440Z,41.33
2018-10-18T18:00:32.421Z,60.87
2018-10-18T18:03:01.287Z,51.70
2018-10-18T18:05:29.815Z,49.87
2018-10-18T18:07:58.410Z,40.77
2018-10-18T18:10:27.128Z,55.20
2018-10-18T18:12:55.984Z,69.50
2018-10-18T18:15:24.544Z,58.10
2018-10-18T18:17:53.076Z,42.37
2018-10-18T18:20:21.646Z,40.93
2018-10-18T18:22:50.222Z,42.97
2018-10-18T18:25:18.988Z,43.03
2018-10-18T18:27:47.457Z,42.43
2018-10-18T18:30:16.330Z,53.53
2018-10-18T18:32:44.762Z,48.90
2018-10-18T18:35:13.403Z,37.13
2018-10-18T18:37:41.920Z,36.00
2018-10-18T18:40:10.579Z,33.40
2018-10-18T18:42:39.741Z,53.47
2018-10-18T18:45:13.528Z,35.17
2018-10-18T18:47:42.174Z,43.73
2018-10-18T18:50:10.686Z,37.57
2018-10-18T18:52:39.158Z,34.30
2018-10-18T18:55:08.590Z,34.63
2018-10-18T18:57:37.071Z,31.63
2018-10-18T19:00:06.077Z,31.17
2018-10-18T19:02:34.679Z,32.13
2018-10-18T19:05:03.199Z,33.67
2018-10-18T19:07:32.591Z,33.53
2018-10-18T19:10:01.059Z,34.63
2018-10-18T19:12:29.594Z,37.40
2018-10-18T19:14:58.266Z,36.13
2018-10-18T19:17:26.891Z,31.00
2018-10-18T19:19:55.728Z,31.03
2018-10-18T19:22:24.210Z,35.20
2018-10-18T19:24:52.968Z,31.33
2018-10-18T19:27:21.562Z,33.77
2018-10-18T19:29:50.062Z,39.10
2018-10-18T19:32:18.859Z,39.30
2018-10-18T19:34:47.538Z,48.07
2018-10-18T19:37:16.019Z,33.83
2018-10-18T19:39:44.704Z,45.17
2018-10-18T19:42:13.183Z,40.30
2018-10-18T19:44:41.703Z,34.97
2018-10-18T19:47:10.240Z,33.93
2018-10-18T19:49:38.768Z,34.30
2018-10-18T19:52:07.322Z,36.47
2018-10-18T19:54:36.168Z,36.63
2018-10-18T19:57:04.643Z,33.47
2018-10-18T19:59:33.059Z,37.50
2018-10-18T20:02:02.224Z,35.73
2018-10-18T20:04:30.889Z,32.77
2018-10-18T20:06:59.306Z,34.47
2018-10-18T20:09:34.419Z,34.23
2018-10-18T20:12:03.036Z,33.87
2018-10-18T20:14:31.976Z,35.53
2018-10-18T20:17:00.456Z,33.50
2018-10-18T20:19:29.142Z,35.50
2018-10-18T20:21:57.677Z,36.87
2018-10-18T20:24:26.132Z,37.90
2018-10-18T20:29:30.927Z,34.03
2018-10-18T20:31:59.689Z,46.40
2018-10-18T20:34:28.342Z,48.97
2018-10-18T20:36:56.839Z,38.47
2018-10-18T20:39:25.578Z,39.50
2018-10-18T20:41:54.014Z,39.57
2018-10-18T20:44:22.572Z,38.10
2018-10-18T20:46:51.229Z,36.80
2018-10-18T20:49:19.939Z,40.73
2018-10-18T20:51:48.378Z,41.53
2018-10-18T20:54:17.360Z,36.97
2018-10-18T20:56:45.776Z,39.23
2018-10-18T20:59:14.238Z,37.87
2018-10-18T21:01:42.703Z,43.23
2018-10-18T21:04:11.184Z,44.40
2018-10-18T21:06:39.770Z,39.87
2018-10-18T21:09:09.664Z,43.67
2018-10-18T21:11:38.365Z,63.53
2018-10-18T21:14:06.994Z,45.17
2018-10-18T21:16:35.431Z,46.17
2018-10-18T21:19:04.035Z,40.20
2018-10-18T21:21:32.908Z,39.20
2018-10-18T21:24:01.340Z,43.27
2018-10-18T21:26:29.763Z,46.53
2018-10-18T21:29:00.040Z,41.87
2018-10-18T21:31:29.404Z,39.73
2018-10-18T21:33:58.139Z,39.43
2018-10-18T21:36:26.792Z,39.07
2018-10-18T21:38:55.242Z,40.13
2018-10-18T21:41:23.687Z,39.90
2018-10-18T21:43:52.183Z,40.10
2018-10-18T21:46:20.583Z,41.80
2018-10-18T21:48:49.069Z,41.50
2018-10-18T21:51:17.865Z,35.30
2018-10-18T21:53:46.419Z,40.50
2018-10-18T21:56:14.976Z,39.07
2018-10-18T21:58:43.546Z,42.27
2018-10-18T22:01:12.208Z,39.47
2018-10-18T22:03:40.714Z,37.33
2018-10-18T22:06:09.172Z,37.87
2018-10-18T22:08:37.647Z,34.57
2018-10-18T22:11:06.562Z,39.07
2018-10-18T22:13:35.223Z,41.63
2018-10-18T22:16:03.654Z,37.67
2018-10-18T22:18:32.130Z,37.03
2018-10-18T22:21:00.633Z,36.90
2018-10-18T22:23:29.360Z,34.73
2018-10-18T22:26:00.363Z,36.50
2018-10-18T22:28:32.215Z,34.40
2018-10-18T22:31:00.731Z,39.43
2018-10-18T22:33:29.471Z,36.83
2018-10-18T22:35:58.027Z,37.07
2018-10-18T22:38:26.797Z,39.00
2018-10-18T22:40:55.417Z,39.07
2018-10-18T22:43:24.104Z,42.17
2018-10-18T22:45:58.061Z,38.53
2018-10-18T22:48:26.638Z,43.53
2018-10-18T22:50:55.514Z,39.07
2018-10-18T22:53:24.311Z,37.43
2018-10-18T22:55:53.078Z,38.03
2018-10-18T22:58:21.779Z,36.70
2018-10-18T23:00:50.878Z,35.70
2018-10-18T23:03:20.656Z,37.93
2018-10-18T23:05:49.687Z,38.17
2018-10-18T23:08:18.126Z,35.13
2018-10-18T23:10:46.725Z,31.33
2018-10-18T23:13:15.160Z,38.47
2018-10-18T23:15:43.610Z,34.73
2018-10-18T23:18:12.070Z,38.13
2018-10-18T23:20:41.167Z,38.47
2018-10-18T23:23:10.359Z,36.30
2018-10-18T23:25:39.449Z,37.17
2018-10-18T23:28:07.893Z,37.30
2018-10-18T23:30:36.343Z,34.27
2018-10-18T23:33:04.916Z,40.13
2018-10-18T23:35:33.523Z,38.60
2018-10-18T23:38:02.002Z,36.57
2018-10-18T23:40:30.475Z,37.27
2018-10-18T23:42:58.892Z,37.90
2018-10-18T23:45:27.342Z,35.20
2018-10-18T23:47:55.896Z,38.87
2018-10-18T23:50:24.344Z,38.40
2018-10-18T23:52:53.044Z,36.87
2018-10-18T23:55:21.531Z,36.50
2018-10-18T23:57:50.007Z,35.10
